Time;durP1;ratioP1;P1;durP2;ratioP2;P2;SDS_P1;SDS_P2;PMS_P1;PMS_P2;Temp;Humidity;BMP_temperature;BMP_pressure;BME280_temperature;BME280_humidity;BME280_pressure;Samples;Min_cycle;Max_cycle;Signal;HPM_P1;HPM_P2
2023/05/02 00:01:16;;;;;;;10.85;1.55;;;;;;;;;;5067485;28;20055;-76
2023/05/02 00:03:51;;;;;;;7.28;1.80;;;;;;;;;;5066658;28;20975;-74
2023/05/02 00:06:26;;;;;;;7.95;1.63;;;;;;;;;;5066596;28;20072;-78
2023/05/02 00:08:57;;;;;;;9.68;1.42;;;;;;;;;;5067238;28;20048;-75
2023/05/02 00:11:35;;;;;;;7.68;1.35;;;;;;;;;;5066139;28;20063;-79
2023/05/02 00:14:22;;;;;;;7.00;1.08;;;;;;;;;;5066960;28;20041;-74
2023/05/02 00:17:00;;;;;;;10.20;1.80;;;;;;;;;;5067805;28;20689;-77
2023/05/02 00:19:38;;;;;;;7.03;1.63;;;;;;;;;;5067477;28;20517;-73
2023/05/02 00:22:15;;;;;;;8.27;1.00;;;;;;;;;;5066974;28;20071;-74
2023/05/02 00:24:48;;;;;;;7.82;1.30;;;;;;;;;;5067768;28;20048;-75
2023/05/02 00:27:19;;;;;;;8.25;1.20;;;;;;;;;;5067363;28;20510;-77
2023/05/02 00:29:54;;;;;;;3.72;0.95;;;;;;;;;;5065728;28;20059;-74
2023/05/02 00:32:27;;;;;;;8.10;1.20;;;;;;;;;;5065317;28;20049;-74
2023/05/02 00:35:02;;;;;;;8.80;1.45;;;;;;;;;;5066763;28;20503;-72
2023/05/02 00:37:37;;;;;;;9.05;1.35;;;;;;;;;;5066973;28;20055;-76
2023/05/02 00:40:15;;;;;;;9.63;1.50;;;;;;;;;;5066938;28;20064;-74
2023/05/02 00:42:49;;;;;;;10.32;1.80;;;;;;;;;;5066888;28;20052;-74
2023/05/02 00:45:28;;;;;;;8.48;1.90;;;;;;;;;;5065129;28;20063;-77
2023/05/02 00:47:59;;;;;;;10.05;1.88;;;;;;;;;;5064600;28;20067;-73
2023/05/02 00:50:32;;;;;;;13.20;1.77;;;;;;;;;;5061743;28;20060;-76
2023/05/02 00:53:04;;;;;;;5.30;1.42;;;;;;;;;;5055494;28;20526;-75
2023/05/02 00:55:43;;;;;;;11.43;2.00;;;;;;;;;;5046181;28;20052;-75
2023/05/02 00:58:17;;;;;;;12.52;1.77;;;;;;;;;;5045930;28;20045;-76
2023/05/02 01:01:01;;;;;;;6.88;2.00;;;;;;;;;;5046728;28;20494;-75
2023/05/02 01:03:56;;;;;;;13.77;1.55;;;;;;;;;;5046496;28;20537;-78
2023/05/02 01:06:43;;;;;;;12.38;1.58;;;;;;;;;;5046424;28;20055;-77
2023/05/02 01:09:40;;;;;;;8.55;2.03;;;;;;;;;;5045659;28;20076;-74
2023/05/02 01:12:41;;;;;;;10.05;1.25;;;;;;;;;;5046473;28;20044;-76
2023/05/02 01:15:19;;;;;;;8.35;1.38;;;;;;;;;;5044537;28;20060;-77
2023/05/02 01:17:56;;;;;;;8.95;1.60;;;;;;;;;;5045713;28;20041;-74
2023/05/02 01:20:30;;;;;;;9.20;1.48;;;;;;;;;;5046289;28;20063;-74
2023/05/02 01:23:13;;;;;;;6.75;1.23;;;;;;;;;;5043970;28;20057;-75
2023/05/02 01:26:11;;;;;;;12.35;1.48;;;;;;;;;;5046475;28;20048;-75
2023/05/02 01:29:01;;;;;;;11.23;1.65;;;;;;;;;;5046073;28;20060;-76
2023/05/02 01:31:43;;;;;;;8.15;1.27;;;;;;;;;;5044553;28;20060;-74
2023/05/02 01:34:18;;;;;;;8.32;2.22;;;;;;;;;;5046117;28;20080;-74
2023/05/02 01:36:50;;;;;;;11.77;1.83;;;;;;;;;;5046143;28;20057;-72
2023/05/02 01:39:25;;;;;;;9.75;1.50;;;;;;;;;;5043740;28;20044;-75
2023/05/02 01:41:57;;;;;;;8.98;1.50;;;;;;;;;;5046062;28;20063;-74
2023/05/02 01:44:29;;;;;;;15.63;1.85;;;;;;;;;;5045488;28;20060;-73
2023/05/02 01:47:04;;;;;;;9.40;1.42;;;;;;;;;;5043992;28;20721;-75
2023/05/02 01:49:36;;;;;;;10.52;1.75;;;;;;;;;;5046577;28;20407;-74
2023/05/02 01:52:14;;;;;;;15.52;2.00;;;;;;;;;;5045791;28;20080;-74
2023/05/02 01:54:44;;;;;;;5.78;1.40;;;;;;;;;;5046086;28;20049;-75
2023/05/02 01:57:17;;;;;;;10.68;1.95;;;;;;;;;;5046205;28;20052;-75
2023/05/02 01:59:50;;;;;;;14.20;1.83;;;;;;;;;;5046124;28;20049;-74
2023/05/02 02:02:22;;;;;;;11.27;1.60;;;;;;;;;;5046323;28;20076;-76
2023/05/02 02:04:54;;;;;;;8.43;1.83;;;;;;;;;;5043795;28;20056;-75
2023/05/02 02:07:25;;;;;;;11.65;1.85;;;;;;;;;;5044970;28;20056;-75
2023/05/02 02:09:56;;;;;;;13.68;2.08;;;;;;;;;;5048215;28;20057;-74
2023/05/02 02:12:40;;;;;;;11.30;1.67;;;;;;;;;;5045532;28;20052;-75
2023/05/02 02:15:20;;;;;;;14.80;2.33;;;;;;;;;;5045857;28;20049;-73
2023/05/02 02:18:01;;;;;;;8.43;1.45;;;;;;;;;;5046735;28;20049;-73
2023/05/02 02:20:34;;;;;;;8.35;1.67;;;;;;;;;;5028422;28;20060;-76
2023/05/02 02:23:07;;;;;;;15.23;2.22;;;;;;;;;;5046003;28;20524;-74
2023/05/02 02:25:38;;;;;;;10.32;2.35;;;;;;;;;;5043170;28;20053;-76
2023/05/02 02:28:11;;;;;;;10.68;1.58;;;;;;;;;;5044049;28;20404;-72
2023/05/02 02:30:42;;;;;;;9.52;1.73;;;;;;;;;;5044879;28;20048;-72
2023/05/02 02:33:12;;;;;;;11.50;1.60;;;;;;;;;;5045354;28;20049;-72
2023/05/02 02:35:47;;;;;;;13.68;1.98;;;;;;;;;;5045283;28;20056;-73
2023/05/02 02:38:36;;;;;;;8.55;1.58;;;;;;;;;;5045264;28;20045;-73
2023/05/02 02:41:32;;;;;;;9.05;1.90;;;;;;;;;;5045086;28;20053;-72
2023/05/02 02:44:19;;;;;;;13.52;1.60;;;;;;;;;;5043886;28;20056;-75
2023/05/02 02:47:07;;;;;;;13.10;2.03;;;;;;;;;;5044846;28;20045;-77
2023/05/02 02:49:57;;;;;;;6.50;1.33;;;;;;;;;;5045305;28;20533;-74
2023/05/02 02:52:43;;;;;;;15.43;1.65;;;;;;;;;;5042729;28;20045;-77
2023/05/02 02:55:40;;;;;;;9.98;1.75;;;;;;;;;;5044319;28;20392;-75
2023/05/02 02:58:42;;;;;;;16.10;1.90;;;;;;;;;;5043852;28;20061;-73
2023/05/02 03:01:19;;;;;;;10.75;1.85;;;;;;;;;;5044771;28;20041;-76
2023/05/02 03:03:53;;;;;;;12.07;1.75;;;;;;;;;;5042553;28;20703;-73
2023/05/02 03:06:24;;;;;;;6.22;1.58;;;;;;;;;;5044654;28;20053;-72
2023/05/02 03:08:56;;;;;;;11.60;1.60;;;;;;;;;;5042757;28;20060;-74
2023/05/02 03:11:31;;;;;;;4.75;1.63;;;;;;;;;;5045611;28;20433;-74
2023/05/02 03:14:02;;;;;;;8.45;1.13;;;;;;;;;;5048892;28;20419;-73
2023/05/02 03:16:36;;;;;;;6.30;1.08;;;;;;;;;;5046989;28;20064;-73
2023/05/02 03:19:11;;;;;;;8.93;1.50;;;;;;;;;;5031195;28;20523;-73
2023/05/02 03:21:42;;;;;;;8.98;1.38;;;;;;;;;;5046294;28;20052;-74
2023/05/02 03:24:18;;;;;;;7.65;1.40;;;;;;;;;;5046355;28;20060;-73
2023/05/02 03:26:49;;;;;;;8.52;1.42;;;;;;;;;;5046867;28;20515;-74
2023/05/02 03:29:25;;;;;;;7.63;1.20;;;;;;;;;;5046940;28;20538;-74
2023/05/02 03:31:56;;;;;;;8.23;1.48;;;;;;;;;;5046563;28;20053;-75
2023/05/02 03:34:26;;;;;;;11.10;1.27;;;;;;;;;;5048193;28;20413;-74
2023/05/02 03:36:57;;;;;;;10.50;1.60;;;;;;;;;;5046532;28;20071;-75
2023/05/02 03:39:27;;;;;;;7.95;1.50;;;;;;;;;;5048487;28;20045;-74
2023/05/02 03:41:57;;;;;;;12.80;1.88;;;;;;;;;;5046104;28;20495;-74
2023/05/02 03:44:28;;;;;;;14.15;1.70;;;;;;;;;;5048011;28;20052;-73
2023/05/02 03:47:00;;;;;;;4.78;1.30;;;;;;;;;;5046294;28;20052;-74
2023/05/02 03:49:35;;;;;;;3.78;1.02;;;;;;;;;;5045960;28;20060;-72
2023/05/02 03:52:06;;;;;;;6.57;0.93;;;;;;;;;;5046316;28;20052;-74
2023/05/02 03:54:38;;;;;;;9.75;1.10;;;;;;;;;;5047565;28;20037;-74
2023/05/02 03:57:11;;;;;;;4.43;1.10;;;;;;;;;;5048459;28;20543;-73
2023/05/02 03:59:44;;;;;;;8.15;1.08;;;;;;;;;;5046327;28;20064;-76
2023/05/02 04:02:26;;;;;;;6.60;1.08;;;;;;;;;;5046429;28;20044;-76
2023/05/02 04:04:58;;;;;;;6.63;1.45;;;;;;;;;;5045436;28;20441;-74
2023/05/02 04:07:30;;;;;;;12.30;1.30;;;;;;;;;;5045879;28;20048;-74
2023/05/02 04:10:04;;;;;;;10.30;1.40;;;;;;;;;;5046032;28;20064;-75
2023/05/02 04:12:39;;;;;;;6.68;1.33;;;;;;;;;;5046334;28;20056;-73
2023/05/02 04:15:11;;;;;;;12.38;1.75;;;;;;;;;;5045208;28;20049;-75
2023/05/02 04:17:43;;;;;;;9.52;1.55;;;;;;;;;;5045664;28;20052;-73
2023/05/02 04:20:14;;;;;;;10.75;1.25;;;;;;;;;;5045023;28;20053;-74
2023/05/02 04:22:49;;;;;;;18.48;1.70;;;;;;;;;;5044627;28;20519;-72
2023/05/02 04:25:19;;;;;;;13.73;1.80;;;;;;;;;;5047252;28;20522;-73
2023/05/02 04:27:53;;;;;;;10.98;1.50;;;;;;;;;;5047472;28;20045;-72
2023/05/02 04:30:25;;;;;;;8.75;1.70;;;;;;;;;;5045428;28;20063;-74
2023/05/02 04:33:06;;;;;;;16.92;1.88;;;;;;;;;;5046043;28;20056;-74
2023/05/02 04:35:41;;;;;;;11.27;1.40;;;;;;;;;;5045256;28;20404;-74
2023/05/02 04:38:16;;;;;;;9.70;2.08;;;;;;;;;;5045290;28;20053;-74
2023/05/02 04:40:51;;;;;;;13.18;1.67;;;;;;;;;;5045278;28;20459;-74
2023/05/02 04:43:29;;;;;;;10.95;1.73;;;;;;;;;;5045161;28;20152;-73
2023/05/02 04:46:02;;;;;;;10.65;1.50;;;;;;;;;;5045110;28;20519;-74
2023/05/02 04:48:41;;;;;;;15.32;2.03;;;;;;;;;;5045268;28;20063;-73
2023/05/02 04:51:11;;;;;;;12.32;1.50;;;;;;;;;;5045194;28;20071;-73
2023/05/02 04:53:48;;;;;;;14.90;2.00;;;;;;;;;;5044909;28;20538;-73
2023/05/02 04:56:19;;;;;;;20.20;2.17;;;;;;;;;;5044691;28;20511;-74
2023/05/02 04:58:50;;;;;;;15.10;1.80;;;;;;;;;;5044434;28;20060;-73
2023/05/02 05:01:22;;;;;;;15.15;1.75;;;;;;;;;;5045348;28;20057;-72
2023/05/02 05:03:53;;;;;;;17.65;1.88;;;;;;;;;;5047352;28;20040;-73
2023/05/02 05:06:25;;;;;;;15.80;1.63;;;;;;;;;;5044307;28;20423;-74
2023/05/02 05:08:58;;;;;;;21.60;1.67;;;;;;;;;;5044577;28;20911;-74
2023/05/02 05:11:28;;;;;;;13.52;1.50;;;;;;;;;;5044767;28;20561;-73
2023/05/02 05:13:59;;;;;;;12.60;1.80;;;;;;;;;;5044317;28;20049;-73
2023/05/02 05:16:31;;;;;;;13.02;1.70;;;;;;;;;;5044637;28;20063;-73
2023/05/02 05:19:04;;;;;;;6.03;1.45;;;;;;;;;;5044768;28;20048;-74
2023/05/02 05:21:35;;;;;;;3.00;0.85;;;;;;;;;;5047148;28;20040;-74
2023/05/02 05:24:06;;;;;;;10.10;1.30;;;;;;;;;;5046039;28;20503;-74
2023/05/02 05:26:37;;;;;;;11.05;1.55;;;;;;;;;;5046150;28;20051;-75
2023/05/02 05:29:07;;;;;;;5.60;1.13;;;;;;;;;;5044401;28;20535;-72
2023/05/02 05:31:41;;;;;;;8.65;1.60;;;;;;;;;;5044318;28;20064;-75
2023/05/02 05:34:15;;;;;;;11.40;1.27;;;;;;;;;;5044545;28;20419;-73
2023/05/02 05:36:48;;;;;;;10.82;1.70;;;;;;;;;;5044596;28;20045;-72
2023/05/02 05:39:21;;;;;;;13.15;1.73;;;;;;;;;;5044294;28;20049;-73
2023/05/02 05:41:53;;;;;;;11.20;2.00;;;;;;;;;;5044535;28;20553;-73
2023/05/02 05:44:24;;;;;;;21.95;2.10;;;;;;;;;;5044066;28;20059;-73
2023/05/02 05:46:55;;;;;;;8.05;1.33;;;;;;;;;;5045745;28;20045;-71
2023/05/02 05:49:27;;;;;;;11.10;1.63;;;;;;;;;;5043785;28;20060;-73
2023/05/02 05:51:58;;;;;;;15.60;1.90;;;;;;;;;;5044102;28;20072;-74
2023/05/02 05:54:30;;;;;;;10.00;1.75;;;;;;;;;;5044160;28;20049;-73
2023/05/02 05:57:02;;;;;;;10.73;1.80;;;;;;;;;;5044131;28;20400;-75
2023/05/02 05:59:35;;;;;;;11.35;1.45;;;;;;;;;;5043783;28;20061;-73
2023/05/02 06:02:07;;;;;;;7.47;1.63;;;;;;;;;;5043417;28;20067;-74
2023/05/02 06:04:38;;;;;;;9.00;1.27;;;;;;;;;;5043162;28;20053;-73
2023/05/02 06:07:10;;;;;;;7.97;2.42;;;;;;;;;;5043796;28;20060;-72
2023/05/02 06:09:41;;;;;;;11.65;1.80;;;;;;;;;;5043889;28;20049;-73
2023/05/02 06:12:10;;;;;;;10.07;1.88;;;;;;;;;;5044425;28;20060;-72
2023/05/02 06:14:41;;;;;;;9.55;1.60;;;;;;;;;;5043166;28;21147;-74
2023/05/02 06:17:10;;;;;;;9.18;1.80;;;;;;;;;;5045363;28;20045;-74
2023/05/02 06:19:41;;;;;;;11.48;2.63;;;;;;;;;;5043163;28;20056;-74
2023/05/02 06:22:19;;;;;;;8.55;1.65;;;;;;;;;;5045178;28;20049;-74
2023/05/02 06:24:50;;;;;;;14.88;1.83;;;;;;;;;;5044993;28;20526;-75
2023/05/02 06:27:21;;;;;;;14.18;1.90;;;;;;;;;;5045601;28;20421;-73
2023/05/02 06:29:51;;;;;;;13.75;2.03;;;;;;;;;;5045539;28;20051;-73
2023/05/02 06:32:22;;;;;;;13.93;2.03;;;;;;;;;;5045034;28;20057;-74
2023/05/02 06:34:52;;;;;;;20.13;3.40;;;;;;;;;;5045086;28;20052;-75
2023/05/02 06:37:24;;;;;;;19.58;2.50;;;;;;;;;;5045237;28;20057;-74
2023/05/02 06:39:54;;;;;;;25.27;2.30;;;;;;;;;;5044738;28;20052;-74
2023/05/02 06:42:24;;;;;;;18.40;2.45;;;;;;;;;;5027386;28;20517;-75
2023/05/02 06:44:55;;;;;;;23.67;2.58;;;;;;;;;;5042728;28;20053;-74
2023/05/02 06:47:27;;;;;;;16.42;1.98;;;;;;;;;;5044870;28;20045;-74
2023/05/02 06:49:57;;;;;;;19.92;2.83;;;;;;;;;;5043347;28;20061;-75
2023/05/02 06:52:28;;;;;;;19.75;2.60;;;;;;;;;;5027535;28;20511;-75
2023/05/02 06:54:58;;;;;;;19.42;2.65;;;;;;;;;;5044698;28;20032;-74
2023/05/02 06:57:30;;;;;;;20.27;2.90;;;;;;;;;;5045222;28;20041;-73
2023/05/02 07:00:00;;;;;;;19.13;2.20;;;;;;;;;;5044844;28;20048;-74
2023/05/02 07:02:31;;;;;;;15.35;2.95;;;;;;;;;;5044297;28;20053;-74
2023/05/02 07:05:01;;;;;;;14.45;2.35;;;;;;;;;;5044683;28;20879;-74
2023/05/02 07:07:32;;;;;;;8.40;1.80;;;;;;;;;;5044268;28;20060;-75
2023/05/02 07:10:03;;;;;;;9.20;1.60;;;;;;;;;;5044632;28;20048;-72
2023/05/02 07:12:35;;;;;;;12.02;2.03;;;;;;;;;;5045027;28;20045;-74
2023/05/02 07:15:08;;;;;;;9.55;2.00;;;;;;;;;;5044259;28;20065;-74
2023/05/02 07:17:39;;;;;;;14.30;2.47;;;;;;;;;;5045172;28;20048;-75
2023/05/02 07:20:11;;;;;;;17.02;2.08;;;;;;;;;;5044714;28;20049;-74
2023/05/02 07:22:42;;;;;;;11.73;2.33;;;;;;;;;;5044057;28;20056;-76
2023/05/02 07:25:12;;;;;;;9.98;2.10;;;;;;;;;;5044319;28;20051;-74
2023/05/02 07:27:43;;;;;;;12.63;2.90;;;;;;;;;;5044412;28;20052;-74
2023/05/02 07:30:14;;;;;;;13.07;2.50;;;;;;;;;;5044749;28;20045;-74
2023/05/02 07:32:44;;;;;;;9.70;2.42;;;;;;;;;;5044731;28;20041;-74
2023/05/02 07:35:14;;;;;;;12.27;2.28;;;;;;;;;;5044305;28;20053;-75
2023/05/02 07:37:45;;;;;;;13.02;2.53;;;;;;;;;;5044476;28;20041;-74
2023/05/02 07:40:15;;;;;;;7.78;1.85;;;;;;;;;;5044278;28;20055;-75
2023/05/02 07:42:46;;;;;;;8.82;1.77;;;;;;;;;;5043602;28;20053;-73
2023/05/02 07:45:17;;;;;;;9.10;1.85;;;;;;;;;;5044148;28;20049;-73
2023/05/02 07:47:47;;;;;;;11.05;1.98;;;;;;;;;;5044180;28;20048;-73
2023/05/02 07:50:17;;;;;;;6.32;1.60;;;;;;;;;;5044274;28;20049;-75
2023/05/02 07:52:48;;;;;;;7.97;1.95;;;;;;;;;;5044723;28;20045;-73
2023/05/02 07:55:19;;;;;;;4.68;1.45;;;;;;;;;;5044081;28;20053;-74
2023/05/02 07:57:48;;;;;;;5.47;1.33;;;;;;;;;;5046128;28;20053;-75
2023/05/02 08:00:19;;;;;;;6.25;2.10;;;;;;;;;;5047513;28;20049;-75
2023/05/02 08:02:50;;;;;;;3.40;1.00;;;;;;;;;;5047784;28;20048;-74
2023/05/02 08:05:21;;;;;;;4.40;1.60;;;;;;;;;;5048012;28;20041;-75
2023/05/02 08:07:51;;;;;;;3.30;1.67;;;;;;;;;;5047933;28;20052;-76
2023/05/02 08:10:23;;;;;;;5.43;1.60;;;;;;;;;;5047689;28;20052;-74
2023/05/02 08:12:54;;;;;;;5.90;1.98;;;;;;;;;;5047428;28;20527;-74
2023/05/02 08:15:24;;;;;;;5.05;1.23;;;;;;;;;;5047605;28;20056;-73
2023/05/02 08:17:54;;;;;;;4.55;1.10;;;;;;;;;;5047798;28;20833;-72
2023/05/02 08:20:24;;;;;;;2.53;1.45;;;;;;;;;;5047893;28;20499;-75
2023/05/02 08:22:56;;;;;;;3.00;1.40;;;;;;;;;;5048283;28;20049;-73
2023/05/02 08:25:29;;;;;;;3.05;1.38;;;;;;;;;;5047117;28;20036;-75
2023/05/02 08:27:59;;;;;;;3.55;1.77;;;;;;;;;;5047097;28;20056;-74
2023/05/02 08:30:29;;;;;;;4.35;1.60;;;;;;;;;;5045723;28;20057;-73
2023/05/02 08:32:59;;;;;;;3.67;1.77;;;;;;;;;;5047366;28;20049;-74
2023/05/02 08:35:30;;;;;;;3.47;1.67;;;;;;;;;;5046984;28;20056;-74
2023/05/02 08:38:00;;;;;;;4.05;1.77;;;;;;;;;;5047600;28;20045;-74
2023/05/02 08:40:37;;;;;;;5.25;1.67;;;;;;;;;;5047235;28;20044;-74
2023/05/02 08:43:12;;;;;;;4.90;1.30;;;;;;;;;;5046616;28;20044;-74
2023/05/02 08:45:44;;;;;;;2.58;1.60;;;;;;;;;;5046747;28;20052;-75
2023/05/02 08:48:17;;;;;;;2.55;1.42;;;;;;;;;;5046963;28;20419;-74
2023/05/02 08:50:48;;;;;;;2.80;1.42;;;;;;;;;;5046733;28;20389;-74
2023/05/02 08:53:18;;;;;;;3.50;1.48;;;;;;;;;;5046937;28;20419;-74
2023/05/02 08:55:49;;;;;;;5.80;2.03;;;;;;;;;;5045874;28;20048;-74
2023/05/02 08:58:20;;;;;;;6.00;2.47;;;;;;;;;;5046940;28;20847;-74
2023/05/02 09:00:51;;;;;;;5.18;2.05;;;;;;;;;;5047172;28;20053;-74
2023/05/02 09:03:33;;;;;;;2.65;1.90;;;;;;;;;;5046684;28;20580;-74
2023/05/02 09:06:14;;;;;;;5.38;1.90;;;;;;;;;;5046337;28;20037;-76
2023/05/02 09:08:48;;;;;;;3.30;1.40;;;;;;;;;;5046455;28;20051;-75
2023/05/02 09:11:20;;;;;;;3.55;2.15;;;;;;;;;;5046703;28;20048;-73
2023/05/02 09:13:51;;;;;;;4.53;1.95;;;;;;;;;;5046180;28;20508;-74
2023/05/02 09:16:24;;;;;;;6.35;2.40;;;;;;;;;;5046240;28;20048;-73
2023/05/02 09:18:57;;;;;;;4.00;1.92;;;;;;;;;;5046410;28;20044;-74
2023/05/02 09:21:40;;;;;;;2.80;2.00;;;;;;;;;;5046768;28;20064;-74
2023/05/02 09:24:18;;;;;;;4.50;1.92;;;;;;;;;;5045092;28;20057;-75
2023/05/02 09:27:01;;;;;;;5.80;1.85;;;;;;;;;;5046476;28;20049;-74
2023/05/02 09:29:37;;;;;;;4.35;1.80;;;;;;;;;;5045719;28;20053;-76
2023/05/02 09:32:07;;;;;;;4.55;1.90;;;;;;;;;;5044624;28;20538;-75
2023/05/02 09:34:38;;;;;;;3.85;1.83;;;;;;;;;;5045958;28;20072;-75
2023/05/02 09:37:10;;;;;;;4.15;1.73;;;;;;;;;;5046103;28;20049;-78
2023/05/02 09:39:40;;;;;;;4.28;1.40;;;;;;;;;;5046400;28;20834;-75
2023/05/02 09:42:11;;;;;;;3.30;1.70;;;;;;;;;;5046360;28;20056;-78
2023/05/02 09:44:41;;;;;;;7.97;1.67;;;;;;;;;;5045233;28;20515;-74
2023/05/02 09:47:25;;;;;;;1.95;1.35;;;;;;;;;;5045781;28;20060;-75
2023/05/02 09:49:57;;;;;;;4.15;2.00;;;;;;;;;;5045837;28;20052;-76
2023/05/02 09:52:27;;;;;;;4.38;2.08;;;;;;;;;;5045413;28;20855;-75
2023/05/02 09:54:57;;;;;;;2.33;1.50;;;;;;;;;;5045863;28;20052;-77
2023/05/02 09:57:40;;;;;;;4.70;1.80;;;;;;;;;;5045407;28;20060;-76
2023/05/02 10:00:13;;;;;;;2.38;1.40;;;;;;;;;;5045689;28;20872;-76
2023/05/02 10:02:49;;;;;;;3.80;2.17;;;;;;;;;;5045694;28;20416;-76
2023/05/02 10:05:20;;;;;;;2.60;1.88;;;;;;;;;;5043741;28;20056;-75
2023/05/02 10:07:50;;;;;;;6.82;1.75;;;;;;;;;;5045750;28;20052;-75
2023/05/02 10:10:21;;;;;;;5.13;2.80;;;;;;;;;;5045573;28;20044;-75
2023/05/02 10:12:53;;;;;;;5.35;1.80;;;;;;;;;;5045285;28;20045;-75
2023/05/02 10:15:27;;;;;;;4.63;2.08;;;;;;;;;;5044748;28;20064;-76
2023/05/02 10:18:00;;;;;;;1.88;1.20;;;;;;;;;;5045696;28;20399;-76
2023/05/02 10:20:36;;;;;;;2.05;1.60;;;;;;;;;;5044465;28;20056;-75
2023/05/02 10:23:07;;;;;;;4.47;1.98;;;;;;;;;;5044684;28;20052;-76
2023/05/02 10:25:38;;;;;;;4.63;1.63;;;;;;;;;;5045322;28;20048;-75
2023/05/02 10:28:10;;;;;;;3.92;1.42;;;;;;;;;;5044320;28;20049;-76
2023/05/02 10:30:43;;;;;;;4.70;1.80;;;;;;;;;;5045337;28;20061;-77
2023/05/02 10:33:14;;;;;;;2.00;1.42;;;;;;;;;;5045240;28;20036;-76
2023/05/02 10:35:46;;;;;;;5.13;1.50;;;;;;;;;;5044768;28;20048;-77
2023/05/02 10:38:20;;;;;;;1.23;1.00;;;;;;;;;;5043810;28;20049;-77
2023/05/02 10:41:02;;;;;;;1.10;1.00;;;;;;;;;;5044762;28;20053;-76
2023/05/02 10:43:36;;;;;;;5.18;1.20;;;;;;;;;;5050806;28;20041;-76
2023/05/02 10:46:32;;;;;;;2.72;0.90;;;;;;;;;;5053149;28;20423;-75
2023/05/02 10:49:02;;;;;;;0.80;0.80;;;;;;;;;;5052754;28;20037;-76
2023/05/02 10:51:36;;;;;;;1.90;1.10;;;;;;;;;;5049520;28;20155;-75
2023/05/02 10:54:19;;;;;;;2.63;0.85;;;;;;;;;;5054387;28;20080;-75
2023/05/02 10:57:02;;;;;;;2.25;1.00;;;;;;;;;;5049173;28;20503;-76
2023/05/02 10:59:37;;;;;;;2.13;1.10;;;;;;;;;;5045304;28;20356;-75
2023/05/02 11:02:24;;;;;;;1.92;1.50;;;;;;;;;;5045159;28;20036;-76
2023/05/02 11:05:02;;;;;;;1.52;1.08;;;;;;;;;;5044613;28;20063;-75
2023/05/02 11:07:34;;;;;;;1.70;1.40;;;;;;;;;;5044812;28;20045;-75
2023/05/02 11:10:19;;;;;;;2.22;1.00;;;;;;;;;;5044795;28;20527;-76
2023/05/02 11:12:52;;;;;;;0.82;0.82;;;;;;;;;;5044229;28;20091;-74
2023/05/02 11:15:28;;;;;;;1.30;1.00;;;;;;;;;;5044088;28;20052;-75
2023/05/02 11:18:12;;;;;;;1.17;1.02;;;;;;;;;;5044955;28;20049;-74
2023/05/02 11:20:45;;;;;;;2.83;0.90;;;;;;;;;;5043793;28;20491;-75
2023/05/02 11:23:24;;;;;;;2.03;1.20;;;;;;;;;;5044768;28;20064;-74
2023/05/02 11:25:56;;;;;;;0.60;0.60;;;;;;;;;;5044327;28;20522;-74
2023/05/02 11:28:37;;;;;;;0.75;0.75;;;;;;;;;;5044500;28;20054;-75
2023/05/02 11:31:28;;;;;;;0.50;0.47;;;;;;;;;;5044340;28;20048;-74
2023/05/02 11:34:01;;;;;;;1.58;0.38;;;;;;;;;;5048535;28;20048;-75
2023/05/02 11:36:35;;;;;;;0.77;0.47;;;;;;;;;;5048513;28;20052;-74
2023/05/02 11:39:19;;;;;;;0.10;0.10;;;;;;;;;;5047864;28;20056;-76
2023/05/02 11:41:50;;;;;;;0.20;0.20;;;;;;;;;;5047704;28;20388;-74
2023/05/02 11:44:21;;;;;;;0.88;0.05;;;;;;;;;;5048147;28;20056;-75
2023/05/02 11:46:52;;;;;;;0.40;0.32;;;;;;;;;;5048326;28;20044;-74
2023/05/02 11:49:23;;;;;;;1.15;0.40;;;;;;;;;;5046325;28;20446;-75
2023/05/02 11:51:53;;;;;;;0.10;0.10;;;;;;;;;;5048370;28;20546;-75
2023/05/02 11:54:23;;;;;;;0.47;0.30;;;;;;;;;;5048253;28;20119;-74
2023/05/02 11:56:53;;;;;;;0.50;0.50;;;;;;;;;;5048193;28;20060;-75
2023/05/02 11:59:24;;;;;;;0.85;0.10;;;;;;;;;;5047782;28;20052;-74
2023/05/02 12:01:54;;;;;;;0.22;0.20;;;;;;;;;;5047808;28;20049;-75
2023/05/02 12:04:26;;;;;;;0.22;0.22;;;;;;;;;;5047589;28;20064;-74
2023/05/02 12:06:57;;;;;;;0.30;0.30;;;;;;;;;;5047440;28;20052;-74
2023/05/02 12:09:27;;;;;;;0.63;0.30;;;;;;;;;;5048048;28;20041;-73
2023/05/02 12:11:58;;;;;;;0.32;0.32;;;;;;;;;;5047876;28;20407;-74
2023/05/02 12:14:32;;;;;;;0.32;0.30;;;;;;;;;;5047445;28;20879;-76
2023/05/02 12:17:03;;;;;;;0.65;0.25;;;;;;;;;;5047444;28;20056;-77
2023/05/02 12:19:35;;;;;;;0.50;0.30;;;;;;;;;;5047481;28;20049;-74
2023/05/02 12:22:06;;;;;;;0.85;0.50;;;;;;;;;;5046540;28;20052;-74
2023/05/02 12:24:38;;;;;;;0.98;0.35;;;;;;;;;;5047747;28;20060;-75
2023/05/02 12:27:14;;;;;;;0.57;0.28;;;;;;;;;;5047591;28;20045;-75
2023/05/02 12:29:46;;;;;;;0.68;0.40;;;;;;;;;;5047852;28;20053;-73
2023/05/02 12:32:30;;;;;;;0.30;0.22;;;;;;;;;;5047427;28;20578;-74
2023/05/02 12:35:02;;;;;;;0.28;0.10;;;;;;;;;;5047812;28;20052;-74
2023/05/02 12:37:34;;;;;;;0.10;0.10;;;;;;;;;;5047067;28;20048;-73
2023/05/02 12:40:15;;;;;;;1.00;0.10;;;;;;;;;;5047250;28;20431;-76
2023/05/02 12:43:00;;;;;;;;;;;;;;;;;;5047604;28;20535;-74
2023/05/02 12:45:33;;;;;;;0.30;0.30;;;;;;;;;;5047251;28;20409;-76
2023/05/02 12:48:27;;;;;;;0.20;0.20;;;;;;;;;;5046877;28;20737;-76
2023/05/02 12:50:58;;;;;;;0.10;0.10;;;;;;;;;;5046942;28;20049;-75
2023/05/02 12:53:42;;;;;;;1.45;0.30;;;;;;;;;;5046878;28;20049;-76
2023/05/02 12:56:12;;;;;;;1.75;0.13;;;;;;;;;;5047091;28;20037;-74
2023/05/02 12:58:50;;;;;;;0.40;0.22;;;;;;;;;;5046769;28;20045;-73
2023/05/02 13:01:20;;;;;;;0.55;0.30;;;;;;;;;;5047151;28;20072;-76
2023/05/02 13:03:51;;;;;;;3.97;0.30;;;;;;;;;;5046433;28;20048;-74
2023/05/02 13:06:21;;;;;;;1.33;0.15;;;;;;;;;;5046730;28;20419;-77
2023/05/02 13:08:51;;;;;;;1.33;0.30;;;;;;;;;;5046486;28;20056;-74
2023/05/02 13:11:21;;;;;;;0.93;0.20;;;;;;;;;;5046560;28;20056;-76
2023/05/02 13:13:55;;;;;;;2.25;0.50;;;;;;;;;;5045698;28;20049;-76
2023/05/02 13:16:25;;;;;;;0.40;0.10;;;;;;;;;;5046631;28;20520;-77
2023/05/02 13:18:56;;;;;;;1.42;1.10;;;;;;;;;;5046351;28;20060;-75
2023/05/02 13:21:27;;;;;;;1.10;0.30;;;;;;;;;;5045501;28;20059;-75
2023/05/02 13:23:57;;;;;;;1.40;0.40;;;;;;;;;;5046278;28;20060;-75
2023/05/02 13:26:29;;;;;;;0.63;0.55;;;;;;;;;;5045336;28;20063;-74
2023/05/02 13:29:00;;;;;;;0.60;0.40;;;;;;;;;;5046323;28;20060;-77
2023/05/02 13:31:29;;;;;;;1.00;0.40;;;;;;;;;;5046286;28;20052;-74
2023/05/02 13:34:00;;;;;;;0.73;0.50;;;;;;;;;;5046010;28;20052;-78
2023/05/02 13:36:31;;;;;;;3.92;0.70;;;;;;;;;;5045939;28;20404;-75
2023/05/02 13:39:01;;;;;;;0.95;0.40;;;;;;;;;;5046064;28;20036;-75
2023/05/02 13:41:31;;;;;;;1.55;0.40;;;;;;;;;;5045756;28;20045;-75
2023/05/02 13:44:01;;;;;;;1.10;0.30;;;;;;;;;;5046098;28;20037;-74
2023/05/02 13:46:35;;;;;;;1.02;0.30;;;;;;;;;;5043956;28;20741;-74
2023/05/02 13:49:06;;;;;;;3.63;0.52;;;;;;;;;;5046410;28;20405;-77
2023/05/02 13:51:36;;;;;;;1.50;0.60;;;;;;;;;;5046015;28;20044;-76
2023/05/02 13:54:07;;;;;;;1.42;0.50;;;;;;;;;;5044193;28;20512;-74
2023/05/02 13:56:38;;;;;;;5.95;0.30;;;;;;;;;;5045157;28;20510;-75
2023/05/02 13:59:10;;;;;;;0.20;0.20;;;;;;;;;;5045422;28;20053;-76
2023/05/02 14:01:40;;;;;;;3.40;0.75;;;;;;;;;;5045537;28;20047;-74
2023/05/02 14:04:11;;;;;;;1.48;0.45;;;;;;;;;;5046085;28;20052;-78
2023/05/02 14:06:41;;;;;;;0.93;0.20;;;;;;;;;;5045661;28;20048;-75
2023/05/02 14:09:12;;;;;;;0.20;0.20;;;;;;;;;;5045313;28;20060;-73
2023/05/02 14:11:46;;;;;;;0.63;0.25;;;;;;;;;;5045231;28;20045;-76
2023/05/02 14:14:16;;;;;;;4.18;0.30;;;;;;;;;;5045202;28;20053;-75
2023/05/02 14:16:46;;;;;;;1.05;0.50;;;;;;;;;;5045381;28;20056;-73
2023/05/02 14:19:18;;;;;;;3.50;0.50;;;;;;;;;;5045964;28;20064;-74
2023/05/02 14:21:50;;;;;;;1.08;0.47;;;;;;;;;;5045907;28;20393;-74
2023/05/02 14:24:21;;;;;;;0.70;0.20;;;;;;;;;;5045426;28;20044;-74
2023/05/02 14:26:51;;;;;;;2.58;0.40;;;;;;;;;;5045281;28;20049;-75
2023/05/02 14:29:21;;;;;;;1.90;0.60;;;;;;;;;;5045663;28;20053;-74
2023/05/02 14:31:53;;;;;;;0.73;0.60;;;;;;;;;;5045232;28;20033;-73
2023/05/02 14:34:25;;;;;;;0.40;0.40;;;;;;;;;;5044876;28;20045;-73
2023/05/02 14:36:56;;;;;;;2.97;0.55;;;;;;;;;;5045256;28;20045;-74
2023/05/02 14:39:26;;;;;;;2.40;0.35;;;;;;;;;;5045169;28;20040;-75
2023/05/02 14:41:56;;;;;;;1.15;0.40;;;;;;;;;;5043653;28;20052;-74
2023/05/02 14:44:27;;;;;;;2.92;0.60;;;;;;;;;;5045009;28;20055;-75
2023/05/02 14:46:57;;;;;;;1.23;0.32;;;;;;;;;;5044802;28;20067;-75
2023/05/02 14:49:36;;;;;;;2.25;0.38;;;;;;;;;;5045374;28;20041;-74
2023/05/02 14:52:07;;;;;;;1.27;0.40;;;;;;;;;;5043388;28;20519;-73
2023/05/02 14:54:38;;;;;;;4.35;1.70;;;;;;;;;;5045487;28;20044;-76
2023/05/02 14:57:10;;;;;;;1.15;0.57;;;;;;;;;;5045024;28;20071;-75
2023/05/02 14:59:40;;;;;;;1.02;0.47;;;;;;;;;;5044683;28;20055;-75
2023/05/02 15:02:10;;;;;;;1.98;0.47;;;;;;;;;;5045519;28;20048;-73
2023/05/02 15:04:41;;;;;;;1.20;0.98;;;;;;;;;;5045074;28;20056;-72
2023/05/02 15:07:12;;;;;;;0.50;0.10;;;;;;;;;;5047197;28;20076;-74
2023/05/02 15:09:43;;;;;;;1.00;0.40;;;;;;;;;;5049773;28;20048;-74
2023/05/02 15:12:13;;;;;;;2.25;0.35;;;;;;;;;;5048820;28;20045;-76
2023/05/02 15:14:44;;;;;;;2.83;0.13;;;;;;;;;;5048898;28;20629;-74
2023/05/02 15:17:14;;;;;;;0.20;0.10;;;;;;;;;;5048681;28;20044;-73
2023/05/02 15:19:45;;;;;;;1.30;0.40;;;;;;;;;;5048627;28;20052;-74